CMA CGM Turquoise — A8RB5 — position and weather

sailwx.info

Track history (hours):
 
Tides and Currents Weather Stations Pressure Air Temp Water Temp Dewpoint Dewpoint Depression Visibility Wind Speed Wind Dir Waves Ship Positions

CMA CGM Turquoise

Last reported at 2016-Dec-07 11:26 UTC. Time now 2016-Dec-09 07:52 UTC.
Position N 01°55' E 102°20'.

Length 258 m; draft 12.6 m.

Type: Ship (hazmat cat A). MMSI: 636014059.

Date/timePositionNaut miles runAvg speedWind from/ knotsBaromVisibWave heightAir tempDewpointWater temp
2016-Dec-07 11:26N 01°55' E 102°20'1616.8
2016-Dec-07 10:30N 01°48' E 102°35'1616.9
2016-Dec-07 09:33N 01°42' E 102°49'5914.9
2016-Dec-07 05:33N 01°14' E 103°42'5 5.4
2016-Dec-07 04:33N 01°15' E 103°47'0 0.0
2016-Dec-07 03:22N 01°15' E 103°47'0 0.0
2016-Dec-07 02:31N 01°15' E 103°47'0 0.0
2016-Dec-07 01:07N 01°15' E 103°47'0 0.0
2016-Dec-07 00:31N 01°15' E 103°47'0 0.0
2016-Dec-06 21:16N 01°15' E 103°47'0 0.0
2016-Dec-06 18:25N 01°15' E 103°47'0 0.0
2016-Dec-06 17:33N 01°15' E 103°47'0 0.0
2016-Dec-06 16:33N 01°15' E 103°47'0 0.0
2016-Dec-06 15:33N 01°15' E 103°47'3 3.3
2016-Dec-06 14:33N 01°14' E 103°44'11 0.3
2016-Dec-05 07:29N 01°15' E 103°33'12 1.7
2016-Dec-05 00:25N 01°09' E 103°43'1112.2
2016-Dec-04 23:33N 01°13' E 103°53'  
2016-Nov-30 01:33N 22°28' E 113°53'0 0.0
2016-Nov-30 00:28N 22°28' E 113°53'0 0.0
2016-Nov-29 23:28N 22°28' E 113°53'0 0.0
2016-Nov-29 22:11N 22°28' E 113°53'0 0.0
2016-Nov-29 21:23N 22°28' E 113°53'0 0.0
2016-Nov-29 19:22N 22°28' E 113°53'0 0.1
2016-Nov-29 18:28N 22°28' E 113°53'4 4.2
2016-Nov-29 17:33N 22°24' E 113°53'11 8.5
2016-Nov-29 16:14N 22°20' E 114°05'62214.4
2016-Nov-27 21:06N 29°22' E 122°33'1717.3
2016-Nov-27 20:07N 29°38' E 122°29'1016.7
2016-Nov-27 19:30N 29°45' E 122°19'1314.2
2016-Nov-27 18:33N 29°55' E 122°09'1414.3
2016-Nov-27 17:33N 29°58' E 121°53'3 2.1
2016-Nov-27 16:11N 29°59' E 121°50'0 0.0
2016-Nov-27 15:32N 29°59' E 121°50'0 0.0
2016-Nov-27 14:32N 29°59' E 121°50'0 0.0
2016-Nov-27 13:28N 29°59' E 121°50'0 0.0
2016-Nov-27 12:07N 29°59' E 121°50'0 0.0
2016-Nov-27 11:31N 29°59' E 121°50'  
Track history (hours):
 
Tides and Currents Weather Stations Pressure Air Temp Water Temp Dewpoint Dewpoint Depression Visibility Wind Speed Wind Dir Waves Ship Positions

CMA CGM Turquoise

Last reported at 2016-Dec-07 11:26 UTC. Time now 2016-Dec-09 07:52 UTC.
Position N 01°55' E 102°20'.

Length 258 m; draft 12.6 m.

Type: Ship (hazmat cat A). MMSI: 636014059.

Date/timePositionNaut miles runAvg speedWind from/ knotsBaromVisibWave heightAir tempDewpointWater temp
2016-Dec-07 11:26N 01°55' E 102°20'1616.8
2016-Dec-07 10:30N 01°48' E 102°35'1616.9
2016-Dec-07 09:33N 01°42' E 102°49'5914.9
2016-Dec-07 05:33N 01°14' E 103°42'5 5.4
2016-Dec-07 04:33N 01°15' E 103°47'0 0.0
2016-Dec-07 03:22N 01°15' E 103°47'0 0.0
2016-Dec-07 02:31N 01°15' E 103°47'0 0.0
2016-Dec-07 01:07N 01°15' E 103°47'0 0.0
2016-Dec-07 00:31N 01°15' E 103°47'0 0.0
2016-Dec-06 21:16N 01°15' E 103°47'0 0.0
2016-Dec-06 18:25N 01°15' E 103°47'0 0.0
2016-Dec-06 17:33N 01°15' E 103°47'0 0.0
2016-Dec-06 16:33N 01°15' E 103°47'0 0.0
2016-Dec-06 15:33N 01°15' E 103°47'3 3.3
2016-Dec-06 14:33N 01°14' E 103°44'11 0.3
2016-Dec-05 07:29N 01°15' E 103°33'12 1.7
2016-Dec-05 00:25N 01°09' E 103°43'1112.2
2016-Dec-04 23:33N 01°13' E 103°53'  
2016-Nov-30 01:33N 22°28' E 113°53'0 0.0
2016-Nov-30 00:28N 22°28' E 113°53'0 0.0
2016-Nov-29 23:28N 22°28' E 113°53'0 0.0
2016-Nov-29 22:11N 22°28' E 113°53'0 0.0
2016-Nov-29 21:23N 22°28' E 113°53'0 0.0
2016-Nov-29 19:22N 22°28' E 113°53'0 0.1
2016-Nov-29 18:28N 22°28' E 113°53'4 4.2
2016-Nov-29 17:33N 22°24' E 113°53'11 8.5
2016-Nov-29 16:14N 22°20' E 114°05'62214.4
2016-Nov-27 21:06N 29°22' E 122°33'1717.3
2016-Nov-27 20:07N 29°38' E 122°29'1016.7
2016-Nov-27 19:30N 29°45' E 122°19'1314.2
2016-Nov-27 18:33N 29°55' E 122°09'1414.3
2016-Nov-27 17:33N 29°58' E 121°53'3 2.1
2016-Nov-27 16:11N 29°59' E 121°50'0 0.0
2016-Nov-27 15:32N 29°59' E 121°50'0 0.0
2016-Nov-27 14:32N 29°59' E 121°50'0 0.0
2016-Nov-27 13:28N 29°59' E 121°50'0 0.0
2016-Nov-27 12:07N 29°59' E 121°50'0 0.0
2016-Nov-27 11:31N 29°59' E 121°50'  

Dump ship's entire track history